createdAt,value
2019-02-16T00:00:23.447Z,0
2019-02-16T00:01:25.509Z,0
2019-02-16T00:02:27.567Z,0
2019-02-16T00:03:29.614Z,0
2019-02-16T00:04:31.642Z,0
2019-02-16T00:05:33.693Z,0
2019-02-16T00:06:35.711Z,0
2019-02-16T00:07:37.772Z,0
2019-02-16T00:08:39.795Z,0
2019-02-16T00:09:41.849Z,0
2019-02-16T00:10:43.880Z,0
2019-02-16T00:11:45.928Z,0
2019-02-16T00:12:48.232Z,0
2019-02-16T00:13:50.267Z,0
2019-02-16T00:14:52.310Z,0
2019-02-16T00:15:54.341Z,0
2019-02-16T00:16:56.387Z,0
2019-02-16T00:17:58.458Z,0
2019-02-16T00:19:00.497Z,0
2019-02-16T00:20:02.539Z,0
2019-02-16T00:21:05.614Z,0
2019-02-16T00:22:07.649Z,0
2019-02-16T00:23:09.703Z,0
2019-02-16T00:24:11.751Z,0
2019-02-16T00:25:13.786Z,0
2019-02-16T00:26:15.816Z,0
2019-02-16T00:27:17.925Z,0
2019-02-16T00:28:19.965Z,0
2019-02-16T00:29:21.994Z,0
2019-02-16T00:30:24.441Z,0
2019-02-16T00:31:26.761Z,0
2019-02-16T00:32:28.816Z,0
2019-02-16T00:33:30.847Z,0
2019-02-16T00:34:32.915Z,0
2019-02-16T00:35:34.947Z,0
2019-02-16T00:36:36.988Z,0
2019-02-16T00:37:39.051Z,0
2019-02-16T00:38:41.100Z,0
2019-02-16T00:39:43.143Z,0
2019-02-16T00:40:45.193Z,0
2019-02-16T00:41:47.232Z,0
2019-02-16T00:42:49.307Z,0
2019-02-16T00:43:51.346Z,0
2019-02-16T00:44:54.039Z,0
2019-02-16T00:45:56.075Z,0
2019-02-16T00:46:58.127Z,0
2019-02-16T00:48:00.151Z,0
2019-02-16T00:49:02.258Z,0
2019-02-16T00:50:04.314Z,0
2019-02-16T00:51:15.241Z,0
2019-02-16T00:52:17.266Z,0
2019-02-16T00:53:19.300Z,0
2019-02-16T00:54:21.332Z,0
2019-02-16T00:55:23.748Z,0
2019-02-16T00:56:25.791Z,0
2019-02-16T00:57:27.825Z,0
2019-02-16T00:58:29.846Z,0
2019-02-16T00:59:31.896Z,0
2019-02-16T01:00:33.938Z,0
2019-02-16T01:01:35.977Z,0
2019-02-16T01:02:38.070Z,0
2019-02-16T01:03:40.378Z,0
2019-02-16T01:04:42.419Z,0
2019-02-16T01:05:44.487Z,0
2019-02-16T01:06:46.541Z,0
2019-02-16T01:07:48.682Z,0
2019-02-16T01:08:50.721Z,0
2019-02-16T01:09:52.750Z,0
2019-02-16T01:10:55.050Z,0
2019-02-16T01:11:57.077Z,0
2019-02-16T01:12:59.123Z,0
2019-02-16T01:14:01.433Z,0
2019-02-16T01:15:03.756Z,0
2019-02-16T01:16:05.778Z,0
2019-02-16T01:17:07.828Z,0
2019-02-16T01:18:10.545Z,0
2019-02-16T01:19:12.586Z,0
2019-02-16T01:20:14.634Z,0
2019-02-16T01:21:24.260Z,0
2019-02-16T01:22:26.300Z,0
2019-02-16T01:23:28.349Z,0
2019-02-16T01:24:30.408Z,0
2019-02-16T01:25:32.431Z,0
2019-02-16T01:26:34.524Z,0
2019-02-16T01:27:36.551Z,0
2019-02-16T01:28:38.585Z,0
2019-02-16T01:29:40.621Z,0
2019-02-16T01:30:43.096Z,0
2019-02-16T01:31:45.174Z,0
2019-02-16T01:32:47.305Z,0
2019-02-16T01:33:49.697Z,0
2019-02-16T01:34:51.776Z,0
2019-02-16T01:35:53.874Z,0
2019-02-16T01:36:55.946Z,0
2019-02-16T01:37:58.341Z,0
2019-02-16T01:39:00.434Z,0
2019-02-16T01:40:02.923Z,0
2019-02-16T01:41:05.380Z,0
2019-02-16T01:42:07.471Z,0
2019-02-16T01:43:09.942Z,0
2019-02-16T01:44:12.023Z,0
2019-02-16T01:45:14.117Z,0
2019-02-16T01:46:16.207Z,0
2019-02-16T01:47:18.260Z,0
2019-02-16T01:48:20.284Z,0
2019-02-16T01:49:22.387Z,0
2019-02-16T01:50:24.410Z,0
2019-02-16T01:51:33.704Z,0
2019-02-16T01:52:35.800Z,0
2019-02-16T01:53:37.911Z,0
2019-02-16T01:54:39.982Z,0
2019-02-16T01:55:42.071Z,0
2019-02-16T01:56:44.174Z,0
2019-02-16T01:57:46.550Z,0
2019-02-16T01:58:49.269Z,0
2019-02-16T01:59:51.440Z,0
2019-02-16T02:00:53.520Z,0
2019-02-16T02:01:55.606Z,0
2019-02-16T02:02:57.705Z,0
2019-02-16T02:04:00.086Z,0
2019-02-16T02:05:02.554Z,0
2019-02-16T02:06:04.660Z,0
2019-02-16T02:07:07.138Z,0
2019-02-16T02:08:09.813Z,0
2019-02-16T02:09:13.587Z,0
2019-02-16T02:10:15.667Z,0
2019-02-16T02:11:17.765Z,0
2019-02-16T02:12:19.858Z,0
2019-02-16T02:13:22.244Z,0
2019-02-16T02:14:24.328Z,0
2019-02-16T02:15:26.421Z,0
2019-02-16T02:16:28.514Z,0
2019-02-16T02:17:30.590Z,0
2019-02-16T02:18:32.692Z,0
2019-02-16T02:19:34.782Z,0
2019-02-16T02:20:36.870Z,0
2019-02-16T02:21:43.011Z,0
2019-02-16T02:22:45.124Z,0
2019-02-16T02:23:47.207Z,0
2019-02-16T02:24:49.312Z,0
2019-02-16T02:25:51.406Z,0
2019-02-16T02:26:53.474Z,0
2019-02-16T02:27:55.564Z,0
2019-02-16T02:28:57.647Z,0
2019-02-16T02:29:59.741Z,0
2019-02-16T02:31:01.842Z,0
2019-02-16T02:32:04.217Z,0
2019-02-16T02:33:06.702Z,0
2019-02-16T02:34:08.797Z,0
2019-02-16T02:35:10.903Z,0
2019-02-16T02:36:13.299Z,0
2019-02-16T02:37:15.396Z,0
2019-02-16T02:38:17.882Z,0
2019-02-16T02:39:20.283Z,0
2019-02-16T02:40:22.370Z,0
2019-02-16T02:41:24.449Z,0
2019-02-16T02:42:26.821Z,0
2019-02-16T02:43:28.908Z,0
2019-02-16T02:44:31.005Z,0
2019-02-16T02:45:33.095Z,0
2019-02-16T02:46:35.579Z,0
2019-02-16T02:47:37.945Z,0
2019-02-16T02:48:40.327Z,0
2019-02-16T02:49:42.557Z,0
2019-02-16T02:50:44.636Z,0
2019-02-16T02:51:54.176Z,0
2019-02-16T02:52:58.011Z,0
2019-02-16T02:54:00.400Z,0
2019-02-16T02:55:02.887Z,0
2019-02-16T02:56:05.015Z,0
2019-02-16T02:57:07.700Z,0
2019-02-16T02:58:10.093Z,0
2019-02-16T02:59:12.185Z,0
2019-02-16T03:00:14.277Z,0
2019-02-16T03:01:16.420Z,0
2019-02-16T03:02:18.509Z,0
2019-02-16T03:03:20.595Z,0
2019-02-16T03:04:23.331Z,0
2019-02-16T03:05:25.814Z,0
2019-02-16T03:06:28.573Z,0
2019-02-16T03:07:30.672Z,0
2019-02-16T03:08:32.822Z,0
2019-02-16T03:09:35.882Z,0
2019-02-16T03:10:38.357Z,0
2019-02-16T03:11:40.458Z,0
2019-02-16T03:12:42.540Z,0
2019-02-16T03:13:44.634Z,0
2019-02-16T03:14:46.733Z,0
2019-02-16T03:15:49.238Z,0
2019-02-16T03:16:51.786Z,0
2019-02-16T03:17:53.891Z,0
2019-02-16T03:18:56.282Z,0
2019-02-16T03:19:58.378Z,0
2019-02-16T03:21:00.528Z,0
2019-02-16T03:22:05.309Z,0
2019-02-16T03:23:07.712Z,0
2019-02-16T03:24:09.829Z,0
2019-02-16T03:25:11.909Z,0
2019-02-16T03:26:14.329Z,0
2019-02-16T03:27:16.435Z,0
2019-02-16T03:28:18.548Z,0
2019-02-16T03:29:21.200Z,0
2019-02-16T03:30:23.903Z,0
2019-02-16T03:31:26.767Z,0
2019-02-16T03:32:29.579Z,0
2019-02-16T03:33:31.991Z,0
2019-02-16T03:34:34.086Z,0
2019-02-16T03:35:38.878Z,0
2019-02-16T03:36:41.501Z,0
2019-02-16T03:37:43.595Z,0
2019-02-16T03:38:45.673Z,0
2019-02-16T03:39:47.802Z,0
2019-02-16T03:40:49.892Z,0
2019-02-16T03:41:51.986Z,0
2019-02-16T03:42:54.088Z,0
2019-02-16T03:43:56.522Z,0
2019-02-16T03:44:58.627Z,0
2019-02-16T03:46:00.705Z,0
2019-02-16T03:47:02.810Z,0
2019-02-16T03:48:04.914Z,0
2019-02-16T03:49:06.998Z,0
2019-02-16T03:50:09.392Z,0
2019-02-16T03:51:11.485Z,0
2019-02-16T03:52:15.539Z,0
2019-02-16T03:53:17.609Z,0
2019-02-16T03:54:20.233Z,0
2019-02-16T03:55:22.706Z,0
2019-02-16T03:56:24.802Z,0
2019-02-16T03:57:27.201Z,0
2019-02-16T03:58:29.652Z,0
2019-02-16T03:59:31.760Z,0
2019-02-16T04:00:34.555Z,0
2019-02-16T04:01:36.665Z,0
2019-02-16T04:02:38.736Z,0
2019-02-16T04:03:40.858Z,0
2019-02-16T04:04:43.231Z,0
2019-02-16T04:05:45.319Z,0
2019-02-16T04:06:47.453Z,0
2019-02-16T04:07:50.419Z,0
2019-02-16T04:08:52.537Z,0
2019-02-16T04:09:55.001Z,0
2019-02-16T04:10:57.473Z,0
2019-02-16T04:11:59.872Z,0
2019-02-16T04:13:01.964Z,0
2019-02-16T04:14:04.339Z,0
2019-02-16T04:15:06.419Z,0
2019-02-16T04:16:08.768Z,0
2019-02-16T04:17:10.855Z,0
2019-02-16T04:18:12.893Z,0
2019-02-16T04:19:15.351Z,0
2019-02-16T04:20:17.701Z,0
2019-02-16T04:21:19.766Z,0
2019-02-16T04:22:26.217Z,0
2019-02-16T04:23:28.683Z,0
2019-02-16T04:24:31.728Z,0
2019-02-16T04:25:33.805Z,0
2019-02-16T04:26:35.865Z,0
2019-02-16T04:27:38.198Z,0
2019-02-16T04:28:40.225Z,0
2019-02-16T04:29:42.641Z,0
2019-02-16T04:30:44.692Z,0
2019-02-16T04:31:46.706Z,0
2019-02-16T04:32:48.785Z,0
2019-02-16T04:33:50.825Z,0
2019-02-16T04:34:53.242Z,0
2019-02-16T04:35:55.275Z,0
2019-02-16T04:36:57.321Z,0
2019-02-16T04:37:59.728Z,0
2019-02-16T04:39:01.784Z,0
2019-02-16T04:40:03.844Z,0
2019-02-16T04:41:06.253Z,0
2019-02-16T04:42:08.297Z,0
2019-02-16T04:43:10.699Z,0
2019-02-16T04:44:12.737Z,0
2019-02-16T04:45:15.049Z,0
2019-02-16T04:46:17.098Z,0
2019-02-16T04:47:19.120Z,0
2019-02-16T04:48:21.153Z,0
2019-02-16T04:49:23.484Z,0
2019-02-16T04:50:25.515Z,0
2019-02-16T04:51:27.531Z,0
2019-02-16T04:52:36.770Z,0
2019-02-16T04:53:38.802Z,0
2019-02-16T04:54:41.680Z,0
2019-02-16T04:55:43.719Z,0
2019-02-16T04:56:46.303Z,0
2019-02-16T04:57:48.356Z,0
2019-02-16T04:58:50.388Z,0
2019-02-16T04:59:52.432Z,0
2019-02-16T05:00:54.891Z,0
2019-02-16T05:01:57.299Z,0
2019-02-16T05:02:59.619Z,0
2019-02-16T05:04:01.656Z,0
2019-02-16T05:05:03.679Z,0
2019-02-16T05:06:05.735Z,0
2019-02-16T05:07:07.774Z,0
2019-02-16T05:08:09.828Z,0
2019-02-16T05:09:12.133Z,0
2019-02-16T05:10:14.175Z,0
2019-02-16T05:11:16.257Z,0
2019-02-16T05:12:18.566Z,0
2019-02-16T05:13:20.608Z,0
2019-02-16T05:14:22.631Z,0
2019-02-16T05:15:24.669Z,0
2019-02-16T05:16:27.010Z,0
2019-02-16T05:17:29.041Z,0
2019-02-16T05:18:31.344Z,0
2019-02-16T05:19:33.378Z,0
2019-02-16T05:20:35.396Z,0
2019-02-16T05:21:37.460Z,0
2019-02-16T05:22:46.454Z,0
2019-02-16T05:23:48.870Z,0
2019-02-16T05:24:51.285Z,0
2019-02-16T05:25:53.334Z,0
2019-02-16T05:26:55.970Z,0
2019-02-16T05:27:58.008Z,0
2019-02-16T05:29:00.499Z,0
2019-02-16T05:30:02.905Z,0
2019-02-16T05:31:05.343Z,0
2019-02-16T05:32:07.413Z,0
2019-02-16T05:33:09.791Z,0
2019-02-16T05:34:11.864Z,0
2019-02-16T05:35:14.299Z,0
2019-02-16T05:36:16.721Z,0
2019-02-16T05:37:19.127Z,0
2019-02-16T05:38:21.171Z,0
2019-02-16T05:39:23.883Z,0
2019-02-16T05:40:26.307Z,0
2019-02-16T05:41:28.334Z,0
2019-02-16T05:42:30.390Z,0
2019-02-16T05:43:32.698Z,0
2019-02-16T05:44:34.739Z,0
2019-02-16T05:45:36.767Z,0
2019-02-16T05:46:38.779Z,0
2019-02-16T05:47:40.821Z,0
2019-02-16T05:48:43.433Z,0
2019-02-16T05:49:45.457Z,0
2019-02-16T05:50:48.147Z,0
2019-02-16T05:51:50.216Z,0
2019-02-16T05:52:56.144Z,0
2019-02-16T05:53:58.567Z,0
2019-02-16T05:55:01.096Z,0
2019-02-16T05:56:03.129Z,0
2019-02-16T05:57:05.748Z,0
2019-02-16T05:58:08.082Z,0
2019-02-16T05:59:10.105Z,0
2019-02-16T06:00:12.455Z,0
2019-02-16T06:01:14.488Z,0
2019-02-16T06:02:16.514Z,0
2019-02-16T06:03:18.957Z,0
2019-02-16T06:04:20.983Z,0
2019-02-16T06:05:23.014Z,0
2019-02-16T06:06:25.036Z,0
2019-02-16T06:07:27.097Z,0
2019-02-16T06:08:29.420Z,0
2019-02-16T06:09:31.758Z,0
2019-02-16T06:10:34.078Z,0
2019-02-16T06:11:36.456Z,0
2019-02-16T06:12:38.793Z,0
2019-02-16T06:13:40.824Z,0
2019-02-16T06:14:43.202Z,0
2019-02-16T06:15:45.219Z,0
2019-02-16T06:16:47.756Z,0
2019-02-16T06:17:49.783Z,0
2019-02-16T06:18:51.822Z,0
2019-02-16T06:19:53.836Z,0
2019-02-16T06:20:55.920Z,0
2019-02-16T06:21:57.953Z,0
2019-02-16T06:23:06.020Z,0
2019-02-16T06:24:08.050Z,0
2019-02-16T06:25:10.477Z,1
2019-02-16T06:26:13.432Z,1
2019-02-16T06:27:15.460Z,1
2019-02-16T06:28:17.507Z,1
2019-02-16T06:29:19.529Z,1
2019-02-16T06:30:21.564Z,1
2019-02-16T06:31:23.628Z,1
2019-02-16T06:32:25.641Z,2
2019-02-16T06:33:27.680Z,2
2019-02-16T06:34:32.259Z,2
2019-02-16T06:35:34.739Z,2
2019-02-16T06:36:37.448Z,2
2019-02-16T06:37:39.766Z,2
2019-02-16T06:38:42.087Z,3
2019-02-16T06:39:44.105Z,3
2019-02-16T06:40:46.164Z,3
2019-02-16T06:41:48.588Z,3
2019-02-16T06:42:50.909Z,3
2019-02-16T06:43:53.344Z,4
2019-02-16T06:44:55.369Z,4
2019-02-16T06:45:57.408Z,4
2019-02-16T06:46:59.434Z,4
2019-02-16T06:48:01.470Z,5
2019-02-16T06:49:03.487Z,5
2019-02-16T06:50:05.519Z,5
2019-02-16T06:51:07.550Z,5
2019-02-16T06:52:09.574Z,6
2019-02-16T06:53:15.124Z,6
2019-02-16T06:54:17.143Z,6
2019-02-16T06:55:19.169Z,6
2019-02-16T06:56:21.202Z,7
2019-02-16T06:57:23.274Z,7
2019-02-16T06:58:25.298Z,7
2019-02-16T06:59:27.336Z,8
2019-02-16T07:00:29.375Z,8
2019-02-16T07:01:33.456Z,8
2019-02-16T07:02:35.776Z,8
2019-02-16T07:03:37.811Z,9
2019-02-16T07:04:39.841Z,9
2019-02-16T07:05:41.886Z,9
2019-02-16T07:06:44.452Z,9
2019-02-16T07:07:46.574Z,9
2019-02-16T07:08:48.614Z,10
2019-02-16T07:09:50.923Z,10
2019-02-16T07:10:52.957Z,11
2019-02-16T07:11:54.982Z,11
2019-02-16T07:12:57.022Z,11
2019-02-16T07:13:59.420Z,11
2019-02-16T07:15:01.609Z,12
2019-02-16T07:16:03.642Z,12
2019-02-16T07:17:05.661Z,12
2019-02-16T07:18:07.702Z,12
2019-02-16T07:19:09.723Z,12
2019-02-16T07:20:12.048Z,13
2019-02-16T07:21:14.078Z,13
2019-02-16T07:22:16.125Z,13
2019-02-16T07:23:24.250Z,14
2019-02-16T07:24:26.680Z,13
2019-02-16T07:25:28.724Z,16
2019-02-16T07:26:31.038Z,26
2019-02-16T07:27:33.445Z,34
2019-02-16T07:28:35.478Z,40
2019-02-16T07:29:37.495Z,51
2019-02-16T07:30:39.555Z,50
2019-02-16T07:31:41.601Z,49
2019-02-16T07:32:43.638Z,53
2019-02-16T07:33:45.672Z,59
2019-02-16T07:34:47.997Z,60
2019-02-16T07:35:50.048Z,62
2019-02-16T07:36:52.222Z,64
2019-02-16T07:37:55.701Z,65
2019-02-16T07:38:57.743Z,66
2019-02-16T07:39:59.775Z,67
2019-02-16T07:41:01.801Z,67
2019-02-16T07:42:03.846Z,69
2019-02-16T07:43:05.905Z,71
2019-02-16T07:44:08.237Z,71
2019-02-16T07:45:10.271Z,71
2019-02-16T07:46:12.318Z,75
2019-02-16T07:47:14.338Z,76
2019-02-16T07:48:16.942Z,77
2019-02-16T07:49:18.982Z,77
2019-02-16T07:50:21.014Z,78
2019-02-16T07:51:23.062Z,83
2019-02-16T07:52:25.361Z,84
2019-02-16T07:53:33.198Z,85
2019-02-16T07:54:35.221Z,87
2019-02-16T07:55:37.647Z,89
2019-02-16T07:56:39.668Z,75
2019-02-16T07:57:41.699Z,73
2019-02-16T07:58:44.036Z,90
2019-02-16T07:59:46.618Z,90
2019-02-16T08:00:48.659Z,91
2019-02-16T08:01:50.692Z,91
2019-02-16T08:02:52.711Z,89
2019-02-16T08:03:54.740Z,90
2019-02-16T08:04:57.060Z,95
2019-02-16T08:05:59.101Z,97
2019-02-16T08:07:01.139Z,102
2019-02-16T08:08:03.212Z,104
2019-02-16T08:09:05.283Z,105
2019-02-16T08:10:07.321Z,104
2019-02-16T08:11:09.360Z,103
2019-02-16T08:12:11.383Z,104
2019-02-16T08:13:13.717Z,105
2019-02-16T08:14:15.754Z,106
2019-02-16T08:15:17.780Z,109
2019-02-16T08:16:19.825Z,110
2019-02-16T08:17:21.849Z,109
2019-02-16T08:18:24.273Z,114
2019-02-16T08:19:26.692Z,116
2019-02-16T08:20:28.749Z,116
2019-02-16T08:21:30.778Z,118
2019-02-16T08:22:32.806Z,114
2019-02-16T08:23:41.895Z,113
2019-02-16T08:24:43.922Z,117
2019-02-16T08:25:45.962Z,119
2019-02-16T08:26:47.995Z,114
2019-02-16T08:27:50.034Z,117
2019-02-16T08:28:52.055Z,121
2019-02-16T08:29:54.096Z,125
2019-02-16T08:30:56.416Z,123
2019-02-16T08:31:58.499Z,122
2019-02-16T08:33:00.542Z,122
2019-02-16T08:34:02.568Z,126
2019-02-16T08:35:04.606Z,128
2019-02-16T08:36:06.666Z,129
2019-02-16T08:37:09.275Z,129
2019-02-16T08:38:11.312Z,131
2019-02-16T08:39:13.374Z,133
2019-02-16T08:40:15.404Z,136
2019-02-16T08:41:17.444Z,138
2019-02-16T08:42:19.502Z,138
2019-02-16T08:43:21.545Z,141
2019-02-16T08:44:23.624Z,137
2019-02-16T08:45:25.698Z,133
2019-02-16T08:46:27.733Z,136
2019-02-16T08:47:29.828Z,137
2019-02-16T08:48:31.864Z,135
2019-02-16T08:49:33.920Z,139
2019-02-16T08:50:35.955Z,145
2019-02-16T08:51:37.993Z,151
2019-02-16T08:52:40.029Z,153
2019-02-16T08:53:51.262Z,151
2019-02-16T08:54:53.293Z,156
2019-02-16T08:55:55.329Z,155
2019-02-16T08:56:57.386Z,155
2019-02-16T08:57:59.412Z,160
2019-02-16T08:59:02.135Z,171
2019-02-16T09:00:04.175Z,175
2019-02-16T09:01:06.513Z,178
2019-02-16T09:02:08.538Z,177
2019-02-16T09:03:10.583Z,171
2019-02-16T09:04:12.628Z,170
2019-02-16T09:05:14.674Z,169
2019-02-16T09:06:16.729Z,172
2019-02-16T09:07:18.762Z,173
2019-02-16T09:08:20.803Z,168
2019-02-16T09:09:22.854Z,169
2019-02-16T09:10:24.891Z,170
2019-02-16T09:11:26.961Z,165
2019-02-16T09:12:29.014Z,164
2019-02-16T09:13:31.439Z,168
2019-02-16T09:14:33.487Z,169
2019-02-16T09:15:35.540Z,175
2019-02-16T09:16:39.652Z,176
2019-02-16T09:17:42.072Z,178
2019-02-16T09:18:44.130Z,183
2019-02-16T09:19:46.202Z,184
2019-02-16T09:20:48.525Z,184
2019-02-16T09:21:50.867Z,184
2019-02-16T09:22:52.900Z,195
2019-02-16T09:24:00.902Z,204
2019-02-16T09:25:03.239Z,197
2019-02-16T09:26:05.308Z,194
2019-02-16T09:27:07.355Z,191
2019-02-16T09:28:09.397Z,197
2019-02-16T09:29:11.487Z,197
2019-02-16T09:30:13.833Z,194
2019-02-16T09:31:16.153Z,191
2019-02-16T09:32:18.243Z,198
2019-02-16T09:33:20.633Z,198
2019-02-16T09:34:22.700Z,196
2019-02-16T09:35:24.730Z,195
2019-02-16T09:36:26.777Z,206
2019-02-16T09:37:30.196Z,212
2019-02-16T09:38:32.308Z,211
2019-02-16T09:39:34.382Z,213
2019-02-16T09:40:36.416Z,223
2019-02-16T09:41:38.745Z,223
2019-02-16T09:42:41.085Z,213
2019-02-16T09:43:43.156Z,215
2019-02-16T09:44:45.223Z,213
2019-02-16T09:45:47.267Z,214
2019-02-16T09:46:49.312Z,209
2019-02-16T09:47:51.361Z,209
2019-02-16T09:48:53.818Z,212
2019-02-16T09:49:55.862Z,207
2019-02-16T09:50:57.955Z,205
2019-02-16T09:52:00.013Z,209
2019-02-16T09:53:02.075Z,212
2019-02-16T09:54:09.880Z,215
2019-02-16T09:55:11.928Z,220
2019-02-16T09:56:13.964Z,217
2019-02-16T09:57:16.069Z,216
2019-02-16T09:58:18.888Z,217
2019-02-16T09:59:20.943Z,212
2019-02-16T10:00:22.984Z,218
2019-02-16T10:01:25.037Z,228
2019-02-16T10:02:27.082Z,227
2019-02-16T10:03:29.408Z,216
2019-02-16T10:04:31.734Z,218
2019-02-16T10:05:33.794Z,212
2019-02-16T10:06:35.854Z,213
2019-02-16T10:07:37.908Z,217
2019-02-16T10:08:39.943Z,217
2019-02-16T10:09:41.999Z,217
2019-02-16T10:10:44.622Z,221
2019-02-16T10:11:47.049Z,221
2019-02-16T10:12:49.107Z,227
2019-02-16T10:13:51.143Z,220
2019-02-16T10:14:53.191Z,220
2019-02-16T10:15:55.249Z,223
2019-02-16T10:16:57.290Z,229
2019-02-16T10:17:59.333Z,225
2019-02-16T10:19:02.041Z,222
2019-02-16T10:20:04.107Z,224
2019-02-16T10:21:06.157Z,228
2019-02-16T10:22:08.226Z,229
2019-02-16T10:23:10.281Z,225
2019-02-16T10:24:19.435Z,226
2019-02-16T10:25:21.497Z,228
2019-02-16T10:26:23.542Z,232
2019-02-16T10:27:25.592Z,235
2019-02-16T10:28:27.648Z,235
2019-02-16T10:29:29.692Z,237
2019-02-16T10:30:32.026Z,234
2019-02-16T10:31:34.071Z,235
2019-02-16T10:32:36.169Z,226
2019-02-16T10:33:38.204Z,239
2019-02-16T10:34:40.546Z,228
2019-02-16T10:35:42.606Z,231
2019-02-16T10:36:44.664Z,243
2019-02-16T10:37:46.746Z,246
2019-02-16T10:38:48.815Z,243
2019-02-16T10:39:51.202Z,246
2019-02-16T10:40:53.243Z,240
2019-02-16T10:41:55.305Z,246
2019-02-16T10:42:57.363Z,249
2019-02-16T10:44:01.429Z,257
2019-02-16T10:45:03.771Z,247
2019-02-16T10:46:05.819Z,247
2019-02-16T10:47:07.887Z,234
2019-02-16T10:48:09.938Z,226
2019-02-16T10:49:12.027Z,225
2019-02-16T10:50:14.127Z,243
2019-02-16T10:51:16.231Z,256
2019-02-16T10:52:18.284Z,243
2019-02-16T10:53:20.375Z,228
2019-02-16T10:54:30.937Z,232
2019-02-16T10:55:33.385Z,249
2019-02-16T10:56:35.726Z,240
2019-02-16T10:57:38.074Z,233
2019-02-16T10:58:40.120Z,236
2019-02-16T10:59:42.186Z,239
2019-02-16T11:00:44.241Z,235
2019-02-16T11:01:46.280Z,241
2019-02-16T11:02:48.648Z,244
2019-02-16T11:03:50.691Z,249
2019-02-16T11:04:53.052Z,260
2019-02-16T11:05:55.091Z,256
2019-02-16T11:06:57.795Z,254
2019-02-16T11:07:59.841Z,255
2019-02-16T11:09:02.195Z,247
2019-02-16T11:10:04.264Z,247
2019-02-16T11:11:06.358Z,257
2019-02-16T11:12:09.019Z,261
2019-02-16T11:13:11.077Z,262
2019-02-16T11:14:13.553Z,262
2019-02-16T11:15:15.594Z,250
2019-02-16T11:16:17.704Z,259
2019-02-16T11:17:19.767Z,252
2019-02-16T11:18:22.232Z,258
2019-02-16T11:19:24.331Z,258
2019-02-16T11:20:26.385Z,241
2019-02-16T11:21:28.452Z,242
2019-02-16T11:22:30.537Z,252
2019-02-16T11:23:32.617Z,260
2019-02-16T11:24:37.478Z,271
2019-02-16T11:25:39.531Z,257
2019-02-16T11:26:41.589Z,253
2019-02-16T11:27:43.681Z,260
2019-02-16T11:28:45.776Z,247
2019-02-16T11:29:47.873Z,236
2019-02-16T11:30:49.955Z,247
2019-02-16T11:31:52.326Z,246
2019-02-16T11:32:54.382Z,247
2019-02-16T11:33:56.433Z,251
2019-02-16T11:34:58.501Z,258
2019-02-16T11:36:00.637Z,260
2019-02-16T11:37:02.725Z,258
2019-02-16T11:38:05.160Z,259
2019-02-16T11:39:07.595Z,253
2019-02-16T11:40:09.660Z,255
2019-02-16T11:41:20.399Z,259
2019-02-16T11:42:22.456Z,262
2019-02-16T11:43:24.804Z,262
2019-02-16T11:44:26.853Z,248
2019-02-16T11:45:28.919Z,240
2019-02-16T11:46:31.361Z,244
2019-02-16T11:47:33.415Z,243
2019-02-16T11:48:35.449Z,250
2019-02-16T11:49:37.503Z,239
2019-02-16T11:50:39.561Z,249
2019-02-16T11:51:41.611Z,256
2019-02-16T11:52:43.701Z,253
2019-02-16T11:53:45.742Z,242
2019-02-16T11:54:47.806Z,261
2019-02-16T11:55:50.153Z,264
2019-02-16T11:56:52.207Z,260
2019-02-16T11:57:54.253Z,255
2019-02-16T11:58:56.322Z,257
2019-02-16T11:59:58.376Z,233
2019-02-16T12:01:00.429Z,268
2019-02-16T12:02:02.853Z,262
2019-02-16T12:03:05.307Z,269
2019-02-16T12:04:07.760Z,258
2019-02-16T12:05:10.187Z,253
2019-02-16T12:06:12.243Z,253
2019-02-16T12:07:14.687Z,254
2019-02-16T12:08:16.743Z,262
2019-02-16T12:09:18.829Z,265
2019-02-16T12:10:21.171Z,256
2019-02-16T12:11:23.223Z,244
2019-02-16T12:12:25.266Z,239
2019-02-16T12:13:27.336Z,233
2019-02-16T12:14:29.381Z,237
2019-02-16T12:15:31.447Z,250
2019-02-16T12:16:33.544Z,265
2019-02-16T12:17:35.579Z,259
2019-02-16T12:18:38.032Z,243
2019-02-16T12:19:40.086Z,255
2019-02-16T12:20:42.147Z,262
2019-02-16T12:21:44.194Z,260
2019-02-16T12:22:46.533Z,251
2019-02-16T12:23:48.985Z,245
2019-02-16T12:25:07.659Z,247
2019-02-16T12:26:09.717Z,256
2019-02-16T12:27:11.763Z,258
2019-02-16T12:28:14.194Z,256
2019-02-16T12:29:16.260Z,237
2019-02-16T12:30:18.315Z,230
2019-02-16T12:31:20.364Z,230
2019-02-16T12:32:22.416Z,233
2019-02-16T12:33:24.745Z,219
2019-02-16T12:34:26.919Z,244
2019-02-16T12:35:28.987Z,223
2019-02-16T12:36:31.327Z,237
2019-02-16T12:37:33.380Z,222
2019-02-16T12:38:35.462Z,222
2019-02-16T12:39:37.513Z,233
2019-02-16T12:40:39.598Z,227
2019-02-16T12:41:41.638Z,223
2019-02-16T12:42:43.699Z,224
2019-02-16T12:43:45.751Z,230
2019-02-16T12:44:47.808Z,228
2019-02-16T12:45:52.606Z,224
2019-02-16T12:46:54.680Z,242
2019-02-16T12:47:56.724Z,243
2019-02-16T12:48:58.770Z,239
2019-02-16T12:50:00.901Z,244
2019-02-16T12:51:02.959Z,253
2019-02-16T12:52:05.052Z,243
2019-02-16T12:53:07.111Z,240
2019-02-16T12:54:09.453Z,245
2019-02-16T12:55:16.237Z,246
2019-02-16T12:56:18.301Z,232
2019-02-16T12:57:20.348Z,232
2019-02-16T12:58:22.395Z,241
2019-02-16T12:59:24.848Z,204
2019-02-16T13:00:26.890Z,200
2019-02-16T13:01:28.972Z,231
2019-02-16T13:02:31.093Z,215
2019-02-16T13:03:33.150Z,209
2019-02-16T13:04:35.199Z,192
2019-02-16T13:05:37.250Z,171
2019-02-16T13:06:40.002Z,187
2019-02-16T13:07:42.081Z,190
2019-02-16T13:08:44.193Z,183
2019-02-16T13:09:46.331Z,170
2019-02-16T13:10:48.439Z,165
2019-02-16T13:11:50.555Z,149
2019-02-16T13:12:53.211Z,162
2019-02-16T13:13:55.346Z,157
2019-02-16T13:14:59.352Z,150
2019-02-16T13:16:01.786Z,173
2019-02-16T13:17:04.140Z,185
2019-02-16T13:18:06.198Z,181
2019-02-16T13:19:08.258Z,174
2019-02-16T13:20:10.586Z,135
2019-02-16T13:21:12.639Z,125
2019-02-16T13:22:15.364Z,119
2019-02-16T13:23:17.700Z,143
2019-02-16T13:24:19.763Z,149
2019-02-16T13:25:26.207Z,158
2019-02-16T13:26:28.273Z,151
2019-02-16T13:27:30.319Z,166
2019-02-16T13:28:32.393Z,166
2019-02-16T13:29:34.432Z,167
2019-02-16T13:30:36.493Z,158
2019-02-16T13:31:38.548Z,176
2019-02-16T13:32:40.586Z,166
2019-02-16T13:33:42.647Z,139
2019-02-16T13:34:44.695Z,131
2019-02-16T13:35:46.736Z,146
2019-02-16T13:36:48.844Z,149
2019-02-16T13:37:50.896Z,95
2019-02-16T13:38:53.335Z,113
2019-02-16T13:39:55.390Z,136
2019-02-16T13:40:57.451Z,120
2019-02-16T13:41:59.490Z,104
2019-02-16T13:43:01.546Z,124
2019-02-16T13:44:04.019Z,128
2019-02-16T13:45:06.059Z,137
2019-02-16T13:46:08.713Z,134
2019-02-16T13:47:11.154Z,115
2019-02-16T13:48:13.197Z,112
2019-02-16T13:49:15.259Z,108
2019-02-16T13:50:17.589Z,112
2019-02-16T13:51:19.640Z,99
2019-02-16T13:52:21.689Z,90
2019-02-16T13:53:24.015Z,92
2019-02-16T13:54:26.740Z,100
2019-02-16T13:55:37.593Z,111
2019-02-16T13:56:39.653Z,99
2019-02-16T13:57:41.991Z,101
2019-02-16T13:58:44.416Z,91
2019-02-16T13:59:46.464Z,91
2019-02-16T14:00:48.506Z,84
2019-02-16T14:01:50.623Z,97
2019-02-16T14:02:52.669Z,87
2019-02-16T14:03:54.715Z,97
2019-02-16T14:04:56.762Z,81
2019-02-16T14:05:58.796Z,67
2019-02-16T14:07:01.238Z,69
2019-02-16T14:08:03.345Z,80
2019-02-16T14:09:05.676Z,76
2019-02-16T14:10:07.722Z,83
2019-02-16T14:11:09.769Z,79
2019-02-16T14:12:11.813Z,68
2019-02-16T14:13:14.247Z,77
2019-02-16T14:14:16.296Z,86
2019-02-16T14:15:18.327Z,70
2019-02-16T14:16:20.755Z,75
2019-02-16T14:17:22.814Z,65
2019-02-16T14:18:24.845Z,52
2019-02-16T14:19:26.897Z,52
2019-02-16T14:20:28.948Z,69
2019-02-16T14:21:30.994Z,73
2019-02-16T14:22:33.457Z,67
2019-02-16T14:23:35.495Z,56
2019-02-16T14:24:37.558Z,48
2019-02-16T14:25:47.315Z,44
2019-02-16T14:26:49.379Z,45
2019-02-16T14:27:51.441Z,46
2019-02-16T14:28:53.491Z,45
2019-02-16T14:29:55.538Z,42
2019-02-16T14:30:57.582Z,40
2019-02-16T14:31:59.617Z,40
2019-02-16T14:33:01.661Z,39
2019-02-16T14:34:03.741Z,39
2019-02-16T14:35:05.797Z,40
2019-02-16T14:36:07.837Z,40
2019-02-16T14:37:10.133Z,39
2019-02-16T14:38:12.586Z,39
2019-02-16T14:39:14.618Z,39
2019-02-16T14:40:16.716Z,39
2019-02-16T14:41:18.762Z,40
2019-02-16T14:42:20.834Z,40
2019-02-16T14:43:22.880Z,39
2019-02-16T14:44:24.936Z,39
2019-02-16T14:45:26.985Z,40
2019-02-16T14:46:29.033Z,40
2019-02-16T14:47:31.085Z,40
2019-02-16T14:48:33.113Z,41
2019-02-16T14:49:35.156Z,41
2019-02-16T14:50:37.992Z,41
2019-02-16T14:51:40.022Z,45
2019-02-16T14:52:42.087Z,45